createdAt,value
2018-08-27T00:00:28.022Z,99.79
2018-08-27T00:01:28.013Z,99.99
2018-08-27T00:02:28.047Z,99.03
2018-08-27T00:03:49.015Z,99.79
2018-08-27T00:04:28.021Z,99.99
2018-08-27T00:05:27.992Z,99.99
2018-08-27T00:06:27.988Z,99.99
2018-08-27T00:07:27.983Z,99.99
2018-08-27T00:08:27.979Z,99.99
2018-08-27T00:09:48.984Z,99.99
2018-08-27T00:10:27.966Z,99.99
2018-08-27T00:11:27.973Z,99.99
2018-08-27T00:12:27.961Z,99.99
2018-08-27T00:13:27.957Z,99.99
2018-08-27T00:14:27.944Z,99.99
2018-08-27T00:15:48.953Z,99.99
2018-08-27T00:16:27.934Z,99.99
2018-08-27T00:17:27.929Z,99.99
2018-08-27T00:18:27.929Z,99.99
2018-08-27T00:19:27.919Z,99.99
2018-08-27T00:20:27.913Z,99.99
2018-08-27T00:21:48.919Z,99.99
2018-08-27T00:22:27.904Z,99.99
2018-08-27T00:23:27.900Z,99.99
2018-08-27T00:24:27.898Z,99.99
2018-08-27T00:25:27.922Z,99.99
2018-08-27T00:26:27.880Z,99.99
2018-08-27T00:27:48.888Z,99.99
2018-08-27T00:28:27.876Z,99.99
2018-08-27T00:29:27.868Z,99.99
2018-08-27T00:30:27.858Z,99.99
2018-08-27T00:31:27.854Z,99.99
2018-08-27T00:32:27.851Z,99.99
2018-08-27T00:33:48.902Z,99.99
2018-08-27T00:34:27.839Z,99.99
2018-08-27T00:35:27.846Z,99.99
2018-08-27T00:36:27.827Z,99.99
2018-08-27T00:37:27.825Z,99.99
2018-08-27T00:38:27.821Z,99.99
2018-08-27T00:39:48.821Z,99.99
2018-08-27T00:40:27.808Z,99.99
2018-08-27T00:41:27.800Z,99.99
2018-08-27T00:42:27.804Z,99.99
2018-08-27T00:43:27.795Z,99.99
2018-08-27T00:44:27.806Z,99.99
2018-08-27T00:45:48.789Z,99.99
2018-08-27T00:46:27.789Z,99.99
2018-08-27T00:47:27.769Z,99.99
2018-08-27T00:48:27.763Z,99.99
2018-08-27T00:49:27.762Z,99.99
2018-08-27T00:50:27.755Z,99.99
2018-08-27T00:51:48.809Z,99.99
2018-08-27T00:52:27.823Z,99.99
2018-08-27T00:53:27.739Z,99.99
2018-08-27T00:54:27.733Z,99.99
2018-08-27T00:55:27.731Z,99.99
2018-08-27T00:56:27.723Z,99.99
2018-08-27T00:57:48.723Z,99.99
2018-08-27T00:58:27.717Z,99.99
2018-08-27T00:59:27.709Z,99.99
2018-08-27T01:00:27.703Z,99.99
2018-08-27T01:01:27.730Z,99.99
2018-08-27T01:02:27.691Z,99.99
2018-08-27T01:03:48.791Z,99.99
2018-08-27T01:04:27.680Z,99.99
2018-08-27T01:05:27.677Z,99.99
2018-08-27T01:06:27.672Z,99.99
2018-08-27T01:07:27.663Z,99.99
2018-08-27T01:08:27.658Z,99.99
2018-08-27T01:09:48.662Z,99.99
2018-08-27T01:10:27.653Z,99.99
2018-08-27T01:11:27.649Z,99.99
2018-08-27T01:12:27.641Z,99.99
2018-08-27T01:13:27.637Z,99.99
2018-08-27T01:14:27.628Z,99.99
2018-08-27T01:15:48.628Z,99.99
2018-08-27T01:16:27.636Z,99.99
2018-08-27T01:17:27.615Z,99.99
2018-08-27T01:18:27.606Z,99.99
2018-08-27T01:19:27.602Z,99.99
2018-08-27T01:20:27.594Z,99.99
2018-08-27T01:21:48.598Z,99.99
2018-08-27T01:22:27.653Z,99.99
2018-08-27T01:23:27.589Z,99.99
2018-08-27T01:24:27.575Z,99.99
2018-08-27T01:25:27.573Z,99.99
2018-08-27T01:26:27.567Z,99.99
2018-08-27T01:27:48.566Z,99.99
2018-08-27T01:28:27.556Z,99.99
2018-08-27T01:29:27.558Z,99.99
2018-08-27T01:30:27.545Z,99.99
2018-08-27T02:04:09.032Z,99.99
2018-08-27T02:05:09.001Z,99.99
2018-08-27T02:07:01.965Z,99.99
2018-08-27T02:08:01.954Z,99.99
2018-08-27T02:09:55.037Z,99.99
2018-08-27T02:10:55.008Z,99.99
2018-08-27T02:12:47.969Z,99.99
2018-08-27T02:13:47.931Z,99.99
2018-08-27T02:15:40.832Z,99.99
2018-08-27T02:16:40.818Z,99.99
2018-08-27T02:18:33.827Z,99.99
2018-08-27T02:19:33.788Z,99.99
2018-08-27T02:21:26.723Z,99.99
2018-08-27T02:22:26.712Z,99.99
2018-08-27T02:24:19.706Z,99.99
2018-08-27T02:25:19.682Z,99.99
2018-08-27T02:27:12.661Z,99.99
2018-08-27T02:28:12.636Z,99.99
2018-08-27T02:30:05.616Z,99.99
2018-08-27T02:31:05.599Z,99.99
2018-08-27T02:32:58.520Z,99.99
2018-08-27T02:33:58.516Z,99.99
2018-08-27T02:35:51.413Z,99.99
2018-08-27T02:36:51.395Z,99.99
2018-08-27T02:38:44.386Z,99.99
2018-08-27T02:39:44.354Z,99.99
2018-08-27T02:41:37.323Z,99.99
2018-08-27T02:42:37.302Z,99.99
2018-08-27T02:44:30.275Z,99.99
2018-08-27T02:45:30.257Z,99.99
2018-08-27T02:46:30.250Z,99.99
2018-08-27T02:47:30.250Z,99.99
2018-08-27T02:48:30.266Z,99.99
2018-08-27T02:49:30.245Z,99.99
2018-08-27T02:50:30.249Z,99.99
2018-08-27T02:51:30.231Z,99.99
2018-08-27T02:52:30.231Z,99.99
2018-08-27T02:53:30.239Z,99.99
2018-08-27T02:54:30.222Z,99.99
2018-08-27T02:55:30.251Z,99.99
2018-08-27T02:56:30.210Z,99.99
2018-08-27T02:57:30.209Z,99.99
2018-08-27T02:58:30.204Z,99.99
2018-08-27T02:59:30.200Z,99.99
2018-08-27T03:00:30.202Z,99.99
2018-08-27T03:01:30.195Z,99.99
2018-08-27T03:02:30.191Z,99.99
2018-08-27T03:03:30.184Z,99.99
2018-08-27T03:04:30.182Z,99.99
2018-08-27T03:05:30.176Z,99.99
2018-08-27T03:06:30.173Z,99.99
2018-08-27T03:07:30.169Z,99.99
2018-08-27T03:08:30.160Z,99.99
2018-08-27T03:09:30.161Z,99.99
2018-08-27T03:10:30.158Z,99.99
2018-08-27T03:11:30.151Z,99.99
2018-08-27T03:12:30.152Z,99.99
2018-08-27T03:13:30.157Z,99.99
2018-08-27T03:14:30.142Z,99.99
2018-08-27T03:15:30.140Z,99.99
2018-08-27T03:16:30.130Z,99.99
2018-08-27T03:17:30.124Z,99.99
2018-08-27T03:18:30.192Z,99.99
2018-08-27T03:19:30.125Z,99.99
2018-08-27T03:20:30.118Z,99.99
2018-08-27T03:21:30.131Z,99.99
2018-08-27T03:22:30.107Z,99.99
2018-08-27T03:23:30.104Z,99.99
2018-08-27T03:24:30.103Z,99.99
2018-08-27T03:25:30.098Z,99.99
2018-08-27T03:26:30.092Z,99.99
2018-08-27T03:27:30.089Z,99.99
2018-08-27T03:28:30.098Z,99.99
2018-08-27T03:29:30.078Z,99.99
2018-08-27T03:30:30.075Z,99.99
2018-08-27T03:31:30.074Z,99.99
2018-08-27T03:32:30.068Z,99.99
2018-08-27T03:33:30.062Z,99.99
2018-08-27T03:34:30.062Z,99.99
2018-08-27T03:35:30.055Z,99.99
2018-08-27T03:36:30.047Z,99.99
2018-08-27T03:37:30.048Z,99.99
2018-08-27T03:38:30.046Z,99.99
2018-08-27T03:39:30.054Z,99.99
2018-08-27T03:40:30.073Z,99.99
2018-08-27T03:41:30.030Z,99.99
2018-08-27T03:42:30.027Z,99.99
2018-08-27T03:43:30.025Z,99.99
2018-08-27T03:44:30.031Z,99.99
2018-08-27T03:45:30.024Z,99.99
2018-08-27T03:46:30.013Z,99.99
2018-08-27T03:47:30.011Z,99.99
2018-08-27T03:48:30.029Z,99.99
2018-08-27T03:49:29.997Z,99.99
2018-08-27T03:50:29.997Z,99.99
2018-08-27T03:51:29.992Z,99.99
2018-08-27T03:52:29.988Z,99.99
2018-08-27T03:53:29.986Z,99.99
2018-08-27T03:54:29.981Z,99.99
2018-08-27T03:55:29.974Z,99.99
2018-08-27T03:56:29.967Z,99.99
2018-08-27T03:57:29.965Z,99.99
2018-08-27T03:58:29.963Z,99.99
2018-08-27T03:59:29.958Z,99.99
2018-08-27T04:00:29.952Z,99.99
2018-08-27T04:01:29.951Z,99.99
2018-08-27T04:02:29.944Z,99.99
2018-08-27T04:03:29.942Z,99.99
2018-08-27T04:04:29.941Z,99.99
2018-08-27T04:05:29.934Z,99.99
2018-08-27T04:06:29.930Z,99.99
2018-08-27T04:07:29.927Z,99.99
2018-08-27T04:08:29.922Z,99.99
2018-08-27T04:09:29.919Z,99.99
2018-08-27T04:10:29.916Z,99.99
2018-08-27T04:11:29.908Z,99.99
2018-08-27T04:12:29.902Z,99.99
2018-08-27T04:13:29.905Z,99.99
2018-08-27T04:14:29.896Z,99.99
2018-08-27T04:15:29.891Z,99.99
2018-08-27T04:16:29.889Z,99.99
2018-08-27T04:17:29.884Z,99.99
2018-08-27T04:18:29.880Z,99.99
2018-08-27T04:19:29.876Z,99.99
2018-08-27T04:20:29.872Z,99.99
2018-08-27T04:21:29.868Z,99.99
2018-08-27T04:22:29.862Z,99.99
2018-08-27T04:23:29.852Z,99.99
2018-08-27T04:24:29.854Z,99.99
2018-08-27T04:25:29.851Z,99.99
2018-08-27T04:26:29.849Z,99.99
2018-08-27T04:27:29.855Z,99.99
2018-08-27T04:28:29.837Z,99.99
2018-08-27T04:29:29.838Z,99.99
2018-08-27T04:30:29.832Z,99.99
2018-08-27T04:31:29.826Z,99.99
2018-08-27T04:32:29.822Z,99.99
2018-08-27T04:33:29.822Z,99.99
2018-08-27T04:34:29.816Z,99.99
2018-08-27T04:35:29.818Z,99.99
2018-08-27T04:36:29.804Z,99.99
2018-08-27T04:37:29.802Z,99.99
2018-08-27T04:38:29.800Z,99.99
2018-08-27T04:39:29.792Z,99.99
2018-08-27T04:40:29.794Z,99.99
2018-08-27T04:41:29.786Z,99.99
2018-08-27T04:42:29.825Z,99.99
2018-08-27T04:43:29.775Z,99.99
2018-08-27T04:44:29.778Z,99.99
2018-08-27T04:45:29.768Z,99.99
2018-08-27T04:46:29.768Z,99.99
2018-08-27T04:47:29.759Z,99.99
2018-08-27T04:48:29.798Z,99.99
2018-08-27T04:49:29.758Z,99.99
2018-08-27T04:50:29.751Z,99.99
2018-08-27T04:51:29.751Z,99.99
2018-08-27T04:52:29.738Z,99.99
2018-08-27T04:53:29.738Z,99.99
2018-08-27T04:54:29.724Z,99.99
2018-08-27T04:55:29.727Z,99.99
2018-08-27T04:56:29.734Z,99.99
2018-08-27T04:57:29.722Z,99.99
2018-08-27T04:58:29.721Z,99.99
2018-08-27T04:59:29.731Z,99.99
2018-08-27T05:00:29.743Z,99.99
2018-08-27T05:01:29.701Z,99.99
2018-08-27T05:02:29.709Z,99.99
2018-08-27T05:03:29.697Z,99.99
2018-08-27T05:04:29.697Z,99.99
2018-08-27T05:05:29.688Z,99.99
2018-08-27T05:06:29.684Z,99.99
2018-08-27T05:07:29.699Z,99.99
2018-08-27T05:08:29.678Z,99.99
2018-08-27T05:09:29.673Z,99.99
2018-08-27T05:10:29.668Z,99.99
2018-08-27T05:11:29.666Z,99.99
2018-08-27T05:12:29.659Z,99.99
2018-08-27T05:13:29.659Z,99.99
2018-08-27T05:14:29.653Z,99.99
2018-08-27T05:15:29.657Z,99.99
2018-08-27T05:16:29.644Z,99.99
2018-08-27T05:17:29.640Z,99.99
2018-08-27T05:18:29.638Z,99.99
2018-08-27T05:19:29.636Z,99.99
2018-08-27T05:20:29.633Z,99.99
2018-08-27T05:21:29.623Z,99.99
2018-08-27T05:22:29.623Z,99.99
2018-08-27T05:23:29.622Z,99.99
2018-08-27T05:24:29.640Z,99.99
2018-08-27T05:25:29.615Z,99.99
2018-08-27T05:26:29.609Z,99.99
2018-08-27T05:27:29.601Z,99.99
2018-08-27T05:28:29.595Z,99.99
2018-08-27T05:29:29.596Z,99.99
2018-08-27T05:30:29.616Z,99.99
2018-08-27T05:31:29.666Z,99.99
2018-08-27T05:32:29.585Z,99.99
2018-08-27T05:33:29.597Z,99.99
2018-08-27T05:34:29.576Z,99.99
2018-08-27T05:35:29.571Z,99.99
2018-08-27T05:36:29.564Z,99.99
2018-08-27T05:37:29.562Z,99.99
2018-08-27T05:38:29.607Z,99.99
2018-08-27T05:39:29.556Z,99.99
2018-08-27T05:40:29.552Z,99.99
2018-08-27T05:41:29.549Z,99.99
2018-08-27T05:42:29.542Z,99.99
2018-08-27T05:43:29.539Z,99.99
2018-08-27T05:44:29.569Z,99.99
2018-08-27T05:45:29.534Z,99.99
2018-08-27T05:46:29.526Z,99.99
2018-08-27T05:47:29.532Z,99.99
2018-08-27T05:48:29.519Z,99.99
2018-08-27T05:49:29.518Z,99.99
2018-08-27T05:50:29.516Z,99.99
2018-08-27T05:51:29.513Z,99.99
2018-08-27T05:52:29.509Z,99.99
2018-08-27T05:53:29.502Z,99.99
2018-08-27T05:54:29.501Z,99.99
2018-08-27T05:55:29.495Z,99.99
2018-08-27T05:56:29.494Z,99.99
2018-08-27T05:57:29.489Z,99.99
2018-08-27T05:58:29.490Z,99.99
2018-08-27T05:59:29.482Z,99.99
2018-08-27T06:00:29.477Z,99.99
2018-08-27T06:01:29.551Z,99.99
2018-08-27T06:02:29.475Z,99.99
2018-08-27T06:03:29.473Z,99.99
2018-08-27T06:04:29.475Z,99.99
2018-08-27T06:05:29.464Z,99.99
2018-08-27T06:06:29.459Z,99.99
2018-08-27T06:07:29.452Z,99.99
2018-08-27T06:08:29.470Z,99.99
2018-08-27T06:09:29.451Z,99.99
2018-08-27T06:10:29.444Z,99.99
2018-08-27T06:11:29.444Z,99.99
2018-08-27T06:12:29.440Z,99.99
2018-08-27T06:13:29.433Z,99.99
2018-08-27T06:14:29.431Z,99.99
2018-08-27T06:15:29.426Z,99.99
2018-08-27T06:16:29.458Z,99.99
2018-08-27T06:17:29.422Z,99.99
2018-08-27T06:18:29.425Z,99.99
2018-08-27T06:19:29.417Z,99.99
2018-08-27T06:20:29.416Z,99.99
2018-08-27T06:21:29.408Z,99.99
2018-08-27T06:22:29.489Z,99.99
2018-08-27T06:23:29.405Z,99.99
2018-08-27T06:24:29.398Z,99.99
2018-08-27T06:25:29.402Z,99.99
2018-08-27T06:26:29.394Z,99.99
2018-08-27T06:27:29.386Z,99.99
2018-08-27T06:28:29.384Z,99.99
2018-08-27T06:29:29.383Z,99.99
2018-08-27T06:30:29.383Z,99.99
2018-08-27T06:31:29.374Z,99.99
2018-08-27T06:32:29.428Z,99.99
2018-08-27T06:33:29.370Z,99.99
2018-08-27T06:34:29.366Z,99.99
2018-08-27T06:35:29.363Z,99.99
2018-08-27T06:36:29.366Z,99.99
2018-08-27T06:37:29.354Z,99.99
2018-08-27T06:38:29.357Z,99.99
2018-08-27T06:39:29.365Z,99.99
2018-08-27T06:40:29.347Z,99.99
2018-08-27T06:41:29.348Z,99.99
2018-08-27T06:42:29.347Z,99.99
2018-08-27T06:43:29.341Z,99.99
2018-08-27T06:44:29.379Z,99.99
2018-08-27T06:45:29.344Z,99.99
2018-08-27T06:46:29.337Z,99.99
2018-08-27T06:47:29.333Z,99.99
2018-08-27T06:48:29.329Z,99.99
2018-08-27T06:49:29.328Z,99.67
2018-08-27T06:50:29.327Z,99.91
2018-08-27T06:51:29.321Z,98.86
2018-08-27T06:52:29.325Z,98.38
2018-08-27T06:53:29.321Z,98.47
2018-08-27T06:54:29.323Z,98.72
2018-08-27T06:55:29.324Z,97.52
2018-08-27T06:56:29.324Z,94.84
2018-08-27T06:57:29.319Z,94.45
2018-08-27T06:58:29.323Z,94.45
2018-08-27T06:59:29.316Z,94.31
2018-08-27T07:00:29.318Z,93.82
2018-08-27T07:01:29.325Z,93.44
2018-08-27T07:02:29.318Z,92.48
2018-08-27T07:03:29.321Z,91.76
2018-08-27T07:04:29.320Z,90.32
2018-08-27T07:05:29.326Z,89.69
2018-08-27T07:06:29.320Z,89.69
2018-08-27T07:07:29.373Z,88.64
2018-08-27T07:08:29.321Z,88.69
2018-08-27T07:09:29.320Z,89.51
2018-08-27T07:10:29.325Z,89.65
2018-08-27T07:11:29.321Z,90.13
2018-08-27T07:12:29.325Z,89.94
2018-08-27T07:13:29.329Z,89.65
2018-08-27T07:14:29.327Z,88.25
2018-08-27T07:15:29.379Z,87.39
2018-08-27T07:16:29.339Z,87.96
2018-08-27T07:17:29.332Z,88.64
2018-08-27T07:18:29.335Z,88.83
2018-08-27T07:19:29.330Z,88.44
2018-08-27T07:20:29.337Z,87.38
2018-08-27T07:21:29.339Z,85.75
2018-08-27T07:22:29.361Z,85.71
2018-08-27T07:23:29.342Z,85.32
2018-08-27T07:24:29.347Z,86.05
2018-08-27T07:25:29.347Z,86.52
2018-08-27T07:26:29.350Z,87.82
2018-08-27T07:27:29.443Z,88.02
2018-08-27T07:28:29.351Z,88.11
2018-08-27T07:29:29.353Z,89.12
2018-08-27T07:30:29.357Z,89.64
2018-08-27T07:31:29.366Z,88.10
2018-08-27T07:32:29.370Z,86.66
2018-08-27T07:33:29.361Z,87.15
2018-08-27T07:34:29.382Z,86.71
2018-08-27T07:35:29.422Z,84.78
2018-08-27T07:36:29.394Z,84.78
2018-08-27T07:37:29.381Z,85.60
2018-08-27T07:38:29.391Z,83.37
2018-08-27T07:39:29.379Z,81.52
2018-08-27T07:40:29.383Z,80.46
2018-08-27T07:41:29.395Z,79.69
2018-08-27T07:42:29.391Z,78.40
2018-08-27T07:43:29.454Z,78.83
2018-08-27T07:44:29.398Z,76.82
2018-08-27T07:45:29.404Z,77.78
2018-08-27T07:46:29.405Z,78.03
2018-08-27T07:47:29.409Z,78.85
2018-08-27T07:48:29.413Z,77.50
2018-08-27T07:49:29.418Z,76.38
2018-08-27T07:50:29.467Z,75.38
2018-08-27T07:51:29.429Z,77.40
2018-08-27T07:52:29.450Z,77.09
2018-08-27T07:53:29.440Z,75.99
2018-08-27T07:54:29.447Z,76.59
2018-08-27T07:55:29.445Z,77.98
2018-08-27T07:56:29.450Z,78.85
2018-08-27T07:57:29.556Z,77.92
2018-08-27T07:58:29.486Z,77.19
2018-08-27T07:59:29.470Z,76.06
2018-08-27T08:00:29.516Z,77.40
2018-08-27T08:01:29.489Z,77.25
2018-08-27T08:02:29.485Z,77.19
2018-08-27T08:03:29.486Z,75.30
2018-08-27T08:04:29.564Z,74.43
2018-08-27T08:05:29.500Z,74.37
2018-08-27T08:06:29.507Z,72.25
2018-08-27T08:07:29.513Z,71.12
2018-08-27T08:08:29.630Z,71.39
2018-08-27T08:09:29.516Z,68.33
2018-08-27T08:10:29.528Z,68.49
2018-08-27T08:11:29.533Z,67.33
2018-08-27T08:12:29.549Z,65.30
2018-08-27T08:13:29.538Z,64.85
2018-08-27T08:14:29.552Z,62.85
2018-08-27T08:15:29.560Z,62.85
2018-08-27T08:16:29.587Z,62.66
2018-08-27T08:17:29.574Z,63.17
2018-08-27T08:18:29.585Z,62.20
2018-08-27T08:19:29.642Z,61.55
2018-08-27T08:20:29.604Z,62.69
2018-08-27T08:21:29.620Z,62.92
2018-08-27T08:22:29.624Z,63.21
2018-08-27T08:23:29.638Z,64.47
2018-08-27T08:24:29.642Z,63.85
2018-08-27T08:25:29.650Z,64.72
2018-08-27T08:26:29.656Z,65.69
2018-08-27T08:27:29.667Z,65.40
2018-08-27T08:28:29.671Z,64.82
2018-08-27T08:29:29.753Z,63.98
2018-08-27T08:30:29.697Z,62.49
2018-08-27T08:31:29.755Z,62.23
2018-08-27T08:32:29.719Z,60.52
2018-08-27T08:33:29.749Z,59.67
2018-08-27T08:34:29.735Z,59.74
2018-08-27T08:35:29.759Z,60.30
2018-08-27T08:36:29.758Z,60.58
2018-08-27T08:37:29.780Z,61.17
2018-08-27T08:38:29.795Z,60.35
2018-08-27T08:39:29.792Z,58.37
2018-08-27T08:40:29.806Z,58.31
2018-08-27T08:41:29.815Z,56.36
2018-08-27T08:42:29.828Z,54.79
2018-08-27T08:43:29.838Z,54.50
2018-08-27T08:44:29.847Z,54.21
2018-08-27T08:45:29.862Z,54.08
2018-08-27T08:46:29.865Z,53.89
2018-08-27T08:47:29.895Z,53.81
2018-08-27T08:48:29.899Z,55.05
2018-08-27T08:49:29.921Z,54.76
2018-08-27T08:50:29.936Z,54.89
2018-08-27T08:51:29.942Z,53.91
2018-08-27T08:52:29.958Z,52.87
2018-08-27T08:53:29.974Z,51.61
2018-08-27T08:54:29.981Z,53.26
2018-08-27T08:55:29.997Z,53.42
2018-08-27T08:56:30.006Z,52.92
2018-08-27T08:57:30.035Z,53.36
2018-08-27T08:58:30.038Z,52.14
2018-08-27T08:59:30.049Z,52.16
2018-08-27T09:00:30.068Z,51.75
2018-08-27T09:01:30.139Z,51.67
2018-08-27T09:02:30.093Z,50.41
2018-08-27T09:03:30.102Z,52.82
2018-08-27T09:04:30.121Z,51.29
2018-08-27T09:05:30.143Z,52.16
2018-08-27T09:06:30.237Z,52.28
2018-08-27T09:07:30.163Z,51.61
2018-08-27T09:08:30.199Z,51.80
2018-08-27T09:09:30.207Z,50.36
2018-08-27T09:10:30.226Z,49.88
2018-08-27T09:11:30.232Z,50.09
2018-08-27T09:12:30.269Z,50.58
2018-08-27T09:13:30.277Z,51.65
2018-08-27T09:14:30.279Z,53.74
2018-08-27T09:15:30.302Z,53.30
2018-08-27T09:16:30.320Z,52.82
2018-08-27T09:17:30.384Z,50.73
2018-08-27T09:18:30.378Z,49.92
2018-08-27T09:19:30.392Z,51.79
2018-08-27T09:20:31.266Z,52.92
2018-08-27T09:21:30.377Z,51.92
2018-08-27T09:22:30.404Z,50.70
2018-08-27T09:23:30.457Z,49.92
2018-08-27T09:24:30.419Z,50.65
2018-08-27T09:25:30.464Z,49.49
2018-08-27T09:26:30.461Z,49.54
2018-08-27T09:27:30.469Z,49.73
2018-08-27T09:28:30.485Z,49.00
2018-08-27T09:29:30.516Z,49.10
2018-08-27T09:30:30.520Z,49.10
2018-08-27T09:31:30.611Z,48.71
2018-08-27T09:32:30.543Z,48.44
2018-08-27T09:33:30.556Z,47.66
2018-08-27T09:34:30.570Z,46.95
2018-08-27T09:35:30.583Z,47.90
2018-08-27T09:36:30.603Z,47.58
2018-08-27T09:37:30.616Z,46.76
2018-08-27T09:38:30.639Z,46.39
2018-08-27T09:39:30.646Z,46.88
2018-08-27T09:40:30.655Z,46.02
2018-08-27T09:41:30.697Z,46.76
2018-08-27T09:42:30.720Z,46.15
2018-08-27T09:43:30.749Z,45.88
2018-08-27T09:44:30.755Z,44.85
2018-08-27T09:45:30.762Z,43.57
2018-08-27T09:46:30.767Z,42.79
2018-08-27T09:47:30.776Z,42.16
2018-08-27T09:48:30.812Z,43.19
2018-08-27T09:49:30.823Z,43.85
2018-08-27T09:50:30.812Z,42.63
2018-08-27T09:51:30.830Z,40.82
2018-08-27T09:52:30.844Z,41.31
2018-08-27T09:53:30.862Z,41.09
2018-08-27T09:54:30.874Z,42.63
2018-08-27T09:55:30.894Z,42.69
2018-08-27T09:56:30.906Z,42.85
2018-08-27T09:57:30.922Z,44.02
2018-08-27T09:58:30.969Z,42.83
2018-08-27T09:59:30.950Z,43.04
2018-08-27T10:00:30.966Z,42.69
2018-08-27T10:01:30.983Z,42.79
2018-08-27T10:02:30.994Z,41.67
2018-08-27T10:03:31.020Z,40.41
2018-08-27T10:04:31.035Z,41.58
2018-08-27T10:05:31.102Z,42.54
2018-08-27T10:06:31.064Z,43.91
2018-08-27T10:07:31.067Z,45.86
2018-08-27T10:08:31.078Z,45.67
2018-08-27T10:09:31.098Z,46.08
2018-08-27T10:10:31.145Z,44.52
2018-08-27T10:11:31.756Z,43.93
2018-08-27T10:12:31.153Z,44.01
2018-08-27T10:13:31.152Z,43.50
2018-08-27T10:14:31.156Z,44.04
2018-08-27T10:15:31.167Z,46.57
2018-08-27T10:16:31.217Z,46.08
2018-08-27T10:17:31.219Z,46.37
2018-08-27T10:18:31.217Z,46.01
2018-08-27T10:19:31.221Z,45.89
2018-08-27T10:20:31.228Z,47.17
2018-08-27T10:21:31.238Z,46.76
2018-08-27T10:22:31.326Z,45.12
2018-08-27T10:23:31.270Z,44.20
2018-08-27T10:24:31.276Z,43.64
2018-08-27T10:25:31.296Z,44.38
2018-08-27T10:26:31.390Z,46.01
2018-08-27T10:27:31.311Z,48.49
2018-08-27T10:28:31.323Z,49.66
2018-08-27T10:29:31.342Z,48.80
2018-08-27T10:30:31.345Z,48.30
2018-08-27T10:31:31.378Z,49.95
2018-08-27T10:32:31.368Z,49.56
2018-08-27T10:33:31.389Z,49.76
2018-08-27T10:34:31.386Z,49.66
2018-08-27T10:35:31.400Z,49.87
2018-08-27T10:36:31.441Z,48.13
2018-08-27T10:37:31.414Z,47.44
2018-08-27T10:38:31.424Z,47.23
2018-08-27T10:39:31.434Z,47.71
2018-08-27T10:40:31.449Z,47.69
2018-08-27T10:41:31.454Z,50.51
2018-08-27T10:42:31.468Z,50.02
2018-08-27T10:43:31.475Z,50.53
2018-08-27T10:44:31.482Z,50.04
2018-08-27T10:45:31.576Z,49.24
2018-08-27T10:46:31.499Z,50.29
2018-08-27T10:47:31.504Z,51.48
2018-08-27T10:48:31.519Z,51.31
2018-08-27T10:49:31.521Z,50.34
2018-08-27T10:50:31.540Z,51.40
2018-08-27T10:51:31.540Z,50.53
2018-08-27T10:52:31.550Z,49.37
2018-08-27T10:53:31.560Z,49.34
2018-08-27T10:54:31.571Z,48.18
2018-08-27T10:55:31.582Z,48.95
2018-08-27T10:56:31.592Z,49.73
2018-08-27T10:57:31.595Z,49.63
2018-08-27T10:58:31.690Z,48.85
2018-08-27T10:59:31.614Z,50.73
2018-08-27T11:00:31.626Z,49.73
2018-08-27T11:01:31.627Z,49.49
2018-08-27T11:02:31.644Z,49.49
2018-08-27T11:03:31.661Z,50.48
2018-08-27T11:04:31.660Z,49.05
2018-08-27T11:05:31.673Z,50.26
2018-08-27T11:06:31.680Z,48.17
2018-08-27T11:07:31.690Z,47.52
2018-08-27T11:08:31.720Z,48.22
2018-08-27T11:09:31.708Z,48.22
2018-08-27T11:10:31.753Z,45.91
2018-08-27T11:11:31.751Z,47.20
2018-08-27T11:12:31.748Z,48.41
2018-08-27T11:13:31.752Z,48.03
2018-08-27T11:14:31.765Z,47.93
2018-08-27T11:15:31.773Z,49.63
2018-08-27T11:16:31.785Z,51.43
2018-08-27T11:17:31.798Z,48.73
2018-08-27T11:18:31.809Z,48.17
2018-08-27T11:19:31.958Z,48.63
2018-08-27T11:20:32.019Z,46.78
2018-08-27T11:21:31.843Z,47.61
2018-08-27T11:22:31.859Z,46.26
2018-08-27T11:23:31.871Z,47.14
2018-08-27T11:24:31.882Z,45.46
2018-08-27T11:25:31.895Z,44.23
2018-08-27T11:26:32.065Z,46.40
2018-08-27T11:27:31.923Z,46.57
2018-08-27T11:28:31.938Z,47.27
2018-08-27T11:29:31.952Z,47.59
2018-08-27T11:30:31.966Z,48.56
2018-08-27T11:31:31.976Z,48.44
2018-08-27T11:32:31.991Z,47.47
2018-08-27T11:33:32.015Z,47.93
2018-08-27T11:34:32.020Z,48.20
2018-08-27T11:35:32.028Z,49.37
2018-08-27T11:36:32.061Z,50.70
2018-08-27T11:37:32.062Z,49.83
2018-08-27T11:38:32.083Z,49.58
2018-08-27T11:39:32.089Z,46.69
2018-08-27T11:40:32.095Z,47.83
2018-08-27T11:41:32.114Z,46.56
2018-08-27T11:42:32.124Z,45.14
2018-08-27T11:43:32.232Z,44.14
2018-08-27T11:44:32.210Z,47.95
2018-08-27T11:45:32.169Z,45.90
2018-08-27T11:46:32.266Z,46.04
2018-08-27T11:47:32.195Z,46.00
2018-08-27T11:48:32.216Z,48.10
2018-08-27T11:49:32.231Z,47.75
2018-08-27T11:50:32.290Z,48.00
2018-08-27T11:51:32.332Z,48.93
2018-08-27T11:52:32.313Z,50.46
2018-08-27T11:53:32.274Z,50.56
2018-08-27T11:54:32.304Z,49.85
2018-08-27T11:55:32.305Z,50.78
2018-08-27T11:56:32.341Z,48.97
2018-08-27T11:57:32.351Z,49.32
2018-08-27T11:58:32.346Z,48.61
2018-08-27T11:59:32.371Z,49.61
2018-08-27T12:00:32.356Z,47.51
2018-08-27T12:01:32.416Z,45.68
2018-08-27T12:02:32.384Z,46.31
2018-08-27T12:03:32.434Z,47.01
2018-08-27T12:04:32.426Z,49.95
2018-08-27T12:05:32.485Z,52.44
2018-08-27T12:06:32.492Z,53.23
2018-08-27T12:07:32.439Z,54.11
2018-08-27T12:08:32.458Z,55.17
2018-08-27T12:09:32.457Z,56.14
2018-08-27T12:10:32.472Z,54.91
2018-08-27T12:11:32.476Z,53.85
2018-08-27T12:12:32.490Z,50.92
2018-08-27T12:13:32.498Z,50.48
2018-08-27T12:14:32.541Z,52.73
2018-08-27T12:15:32.519Z,54.94
2018-08-27T12:16:32.523Z,55.42
2018-08-27T12:17:32.596Z,54.71
2018-08-27T12:18:32.561Z,55.36
2018-08-27T12:19:32.552Z,54.55
2018-08-27T12:20:32.557Z,56.29
2018-08-27T12:21:32.566Z,54.16
2018-08-27T12:22:32.583Z,55.81
2018-08-27T12:23:32.582Z,54.33
2018-08-27T12:24:32.594Z,54.59
2018-08-27T12:25:32.604Z,54.85
2018-08-27T12:26:32.609Z,56.02
2018-08-27T12:27:32.620Z,56.02
2018-08-27T12:28:32.673Z,57.30
2018-08-27T12:29:32.628Z,56.65
2018-08-27T12:30:32.683Z,55.88
2018-08-27T12:31:32.645Z,55.40
2018-08-27T12:32:32.654Z,54.95
2018-08-27T12:33:32.705Z,54.88
2018-08-27T12:34:32.662Z,55.15
2018-08-27T12:35:32.662Z,55.05
2018-08-27T12:36:32.678Z,56.02
2018-08-27T12:37:32.744Z,56.88
2018-08-27T12:38:32.686Z,58.56
2018-08-27T12:39:32.755Z,57.11
2018-08-27T12:40:32.760Z,56.62
2018-08-27T12:41:32.698Z,55.85
2018-08-27T12:42:32.709Z,56.52
2018-08-27T12:43:32.751Z,56.24
2018-08-27T12:44:32.716Z,57.14
2018-08-27T12:45:32.714Z,55.94
2018-08-27T12:46:32.741Z,55.76
2018-08-27T12:47:32.854Z,55.05
2018-08-27T12:48:32.773Z,55.24
2018-08-27T12:49:32.746Z,58.27
2018-08-27T12:50:32.750Z,56.52
2018-08-27T12:51:32.756Z,54.47
2018-08-27T12:52:32.831Z,55.31
2018-08-27T12:53:32.771Z,58.31
2018-08-27T12:54:32.767Z,59.50
2018-08-27T12:55:32.771Z,59.50
2018-08-27T12:56:32.777Z,58.92
2018-08-27T12:57:32.783Z,58.34
2018-08-27T12:58:32.861Z,57.28
2018-08-27T12:59:32.796Z,57.46
2018-08-27T13:00:32.794Z,57.59
2018-08-27T13:01:32.805Z,59.11
2018-08-27T13:02:32.893Z,58.27
2018-08-27T13:03:32.806Z,57.79
2018-08-27T13:04:32.823Z,58.78
2018-08-27T13:05:32.839Z,59.75
2018-08-27T13:06:32.824Z,59.36
2018-08-27T13:07:32.851Z,58.01
2018-08-27T13:08:32.824Z,59.00
2018-08-27T13:09:32.831Z,59.07
2018-08-27T13:10:32.841Z,58.30
2018-08-27T13:11:32.856Z,57.91
2018-08-27T13:12:32.953Z,58.78
2018-08-27T13:13:32.862Z,58.49
2018-08-27T13:14:32.888Z,57.23
2018-08-27T13:15:32.881Z,58.39
2018-08-27T13:16:32.877Z,57.01
2018-08-27T13:17:32.863Z,57.30
2018-08-27T13:18:32.895Z,57.86
2018-08-27T13:19:32.909Z,58.14
2018-08-27T13:20:32.890Z,57.46
2018-08-27T13:21:32.885Z,59.40
2018-08-27T13:22:32.890Z,60.21
2018-08-27T13:23:32.885Z,59.46
2018-08-27T13:24:32.900Z,60.36
2018-08-27T13:25:32.896Z,60.17
2018-08-27T13:26:32.896Z,59.30
2018-08-27T13:27:32.894Z,58.81
2018-08-27T13:28:32.903Z,58.81
2018-08-27T13:29:32.934Z,57.39
2018-08-27T13:30:33.093Z,57.39
2018-08-27T13:31:33.179Z,58.45
2018-08-27T13:32:32.957Z,56.23
2018-08-27T13:33:32.936Z,56.23
2018-08-27T13:34:32.969Z,55.13
2018-08-27T13:35:33.000Z,57.71
2018-08-27T13:36:32.984Z,59.46
2018-08-27T13:37:32.943Z,58.49